Time;durP1;ratioP1;P1;durP2;ratioP2;P2;SDS_P1;SDS_P2;PMS_P1;PMS_P2;Temp;Humidity;BMP_temperature;BMP_pressure;BME280_temperature;BME280_humidity;BME280_pressure;Samples;Min_cycle;Max_cycle;Signal;HPM_P1;HPM_P2
2023/10/16 05:18:51;;;;;;;;;;;;;;;12.42;54.01;96974.84;4244320;27;10217;-64
2023/10/16 05:21:19;;;;;;;;;;;;;;;12.74;53.37;96971.44;4234047;27;5770;-63
2023/10/16 06:15:20;;;;;;;;;;;;;;;14.01;48.86;96958.84;4171729;28;5590;-64
2023/10/16 06:17:24;;;;;;;;;;;;;;;14.03;49.06;96956.78;4172961;28;7745;-64
2023/10/16 06:19:28;;;;;;;;;;;;;;;14.06;48.83;96957.19;4151188;28;5808;-64
2023/10/16 06:21:30;;;;;;;;;;;;;;;14.09;48.83;96961.28;4157078;28;5987;-63
2023/10/16 06:23:42;;;;;;;;;;;;;;;14.10;48.60;96968.22;4165188;28;5842;-64
2023/10/16 06:25:47;;;;;;;;;;;;;;;14.11;48.74;96969.84;4155866;28;5778;-64
2023/10/16 06:27:51;;;;;;;;;;;;;;;14.15;48.81;96976.38;4159409;28;6567;-64
2023/10/16 06:29:54;;;;;;;;;;;;;;;14.14;48.26;96962.25;4166136;28;5843;-65
2023/10/16 06:31:58;;;;;;;;;;;;;;;14.12;48.26;96972.28;4165674;28;5954;-65
2023/10/16 06:34:05;;;;;;;;;;;;;;;14.13;48.07;96973.94;4218834;28;5884;-66
2023/10/16 06:36:10;;;;;;;;;;;;;;;14.12;48.17;96964.31;4230433;28;5654;-66
2023/10/16 06:38:14;;;;;;;;;;;;;;;14.15;48.14;96976.38;4226001;27;5739;-66
2023/10/16 06:40:24;;;;;;;;;;;;;;;14.16;48.07;96970.06;4225984;28;5729;-66
2023/10/16 06:42:28;;;;;;;;;;;;;;;14.18;48.20;96968.81;4225693;27;6591;-66
2023/10/16 06:44:34;;;;;;;;;;;;;;;14.21;47.83;96972.88;4233816;27;5729;-66
2023/10/16 06:46:37;;;;;;;;;;;;;;;14.22;48.00;96969.19;4226091;28;5745;-66
2023/10/16 06:48:40;;;;;;;;;;;;;;;14.22;48.00;96974.50;4224853;28;5795;-66
2023/10/16 06:50:53;;;;;;;;;;;;;;;14.22;47.88;96975.31;4225385;28;5769;-65
2023/10/16 06:52:59;;;;;;;;;;;;;;;14.23;47.89;96976.13;4226997;28;5746;-65
2023/10/16 06:55:02;;;;;;;;;;;;;;;14.25;47.80;96979.41;4233378;28;5634;-65
2023/10/16 06:57:11;;;;;;;;;;;;;;;14.21;47.57;96976.34;4225739;28;5674;-68
2023/10/16 06:59:16;;;;;;;;;;;;;;;14.22;47.61;96972.66;4223201;28;5789;-66
2023/10/16 07:01:19;;;;;;;;;;;;;;;14.25;47.86;96979.41;4218385;28;5791;-66
2023/10/16 07:03:23;;;;;;;;;;;;;;;14.24;47.81;96978.59;4232003;28;5879;-68
2023/10/16 07:05:42;;;;;;;;;;;;;;;14.26;47.77;96983.69;4226190;28;5680;-66
2023/10/16 07:07:47;;;;;;;;;;;;;;;14.28;47.81;96982.47;4218455;28;5695;-66
2023/10/16 07:09:51;;;;;;;;;;;;;;;14.31;47.59;96977.75;4223955;28;5074;-66
2023/10/16 07:11:54;;;;;;;;;;;;;;;14.33;47.49;96981.00;4233329;28;8326;-66
2023/10/16 07:13:59;;;;;;;;;;;;;;;14.32;47.41;96984.69;4225247;28;5662;-65
2023/10/16 07:16:04;;;;;;;;;;;;;;;14.33;47.43;96984.47;4223053;28;5807;-66
2023/10/16 07:18:06;;;;;;;;;;;;;;;14.32;47.66;96985.50;4222335;28;5741;-66
2023/10/16 07:20:22;;;;;;;;;;;;;;;14.32;47.50;96990.81;4233709;28;5782;-66
2023/10/16 07:22:31;;;;;;;;;;;;;;;14.33;47.43;96987.13;4225634;27;6568;-65
2023/10/16 07:24:35;;;;;;;;;;;;;;;14.36;47.71;96986.72;4224444;28;6429;-66
2023/10/16 07:26:38;;;;;;;;;;;;;;;14.37;47.38;96996.31;4225311;28;5650;-66
2023/10/16 07:28:48;;;;;;;;;;;;;;;14.40;47.26;96989.78;4225659;28;5675;-66
2023/10/16 07:30:52;;;;;;;;;;;;;;;14.40;47.38;96995.91;4227011;27;5750;-66
2023/10/16 07:32:55;;;;;;;;;;;;;;;14.40;47.22;97001.22;4231536;28;5864;-66
2023/10/16 07:34:59;;;;;;;;;;;;;;;14.41;47.51;96997.53;4224847;28;5756;-66
2023/10/16 07:37:04;;;;;;;;;;;;;;;14.42;47.15;96999.16;4228470;28;5969;-66
2023/10/16 07:39:07;;;;;;;;;;;;;;;14.42;47.40;96999.16;4232991;28;5731;-66
2023/10/16 07:41:13;;;;;;;;;;;;;;;14.44;47.12;97006.94;4219809;28;5672;-66
2023/10/16 07:43:15;;;;;;;;;;;;;;;14.45;47.17;97004.09;4225001;28;5789;-67
2023/10/16 07:45:18;;;;;;;;;;;;;;;14.47;47.21;97002.03;4224189;27;5755;-67
2023/10/16 07:47:23;;;;;;;;;;;;;;;14.50;47.38;96998.97;4226403;28;5664;-67
2023/10/16 07:49:26;;;;;;;;;;;;;;;14.52;47.06;97002.22;4228302;28;5898;-65
2023/10/16 07:51:30;;;;;;;;;;;;;;;14.55;47.29;97003.63;4227413;28;5788;-66
2023/10/16 07:53:34;;;;;;;;;;;;;;;14.56;47.03;97003.41;4221860;28;5840;-66
2023/10/16 07:55:40;;;;;;;;;;;;;;;14.61;47.03;97005.47;4228060;28;5840;-64
2023/10/16 07:57:44;;;;;;;;;;;;;;;14.62;47.16;97004.44;4227130;28;5907;-64
2023/10/16 07:59:54;;;;;;;;;;;;;;;14.64;47.28;97004.22;4223376;28;6929;-64
2023/10/16 08:01:57;;;;;;;;;;;;;;;14.65;47.00;96995.19;4225426;28;5741;-64
2023/10/16 08:04:01;;;;;;;;;;;;;;;14.67;47.20;97006.44;4225004;27;5800;-64
2023/10/16 08:06:05;;;;;;;;;;;;;;;14.67;47.08;97001.13;4224200;28;5721;-66
2023/10/16 08:08:11;;;;;;;;;;;;;;;14.67;47.15;97004.59;4232259;28;5753;-66
2023/10/16 08:10:41;;;;;;;;;;;;;;;14.67;47.01;97009.91;4232906;27;5733;-65
2023/10/16 08:12:46;;;;;;;;;;;;;;;14.67;46.87;97006.44;4216060;28;6352;-66
2023/10/16 08:14:51;;;;;;;;;;;;;;;14.69;46.84;97004.38;4219723;28;5692;-65
2023/10/16 08:17:04;;;;;;;;;;;;;;;14.70;46.82;97004.16;4231209;27;5343;-65
2023/10/16 08:19:15;;;;;;;;;;;;;;;14.70;46.68;97000.69;4227402;28;5672;-65
2023/10/16 08:21:26;;;;;;;;;;;;;;;14.70;46.72;97004.16;4229920;28;5108;-65
2023/10/16 08:23:34;;;;;;;;;;;;;;;14.70;46.76;97006.81;4224015;28;5753;-65
2023/10/16 08:25:40;;;;;;;;;;;;;;;14.72;46.71;97009.25;4228308;28;5928;-66
2023/10/16 08:27:47;;;;;;;;;;;;;;;14.72;46.70;97014.56;4228132;28;5091;-67
2023/10/16 08:29:54;;;;;;;;;;;;;;;14.73;46.65;97005.59;4229370;28;5804;-67
2023/10/16 08:34:19;;;;;;;;;;;;;;;14.73;46.85;97003.75;4231735;28;5758;-65
2023/10/16 08:36:23;;;;;;;;;;;;;;;14.71;46.64;96994.31;4225075;28;6415;-66
2023/10/16 08:38:27;;;;;;;;;;;;;;;14.72;46.92;96998.63;4225200;28;5814;-65
2023/10/16 08:40:32;;;;;;;;;;;;;;;14.72;46.74;96990.63;4217056;28;5783;-67
2023/10/16 08:42:40;;;;;;;;;;;;;;;14.73;46.56;97002.94;4225178;28;5664;-65
2023/10/16 08:44:44;;;;;;;;;;;;;;;14.72;46.57;96994.13;4225969;28;5649;-66
2023/10/16 08:46:54;;;;;;;;;;;;;;;14.72;46.70;96993.28;4233144;28;5666;-66
2023/10/16 08:48:57;;;;;;;;;;;;;;;14.75;46.85;96998.22;4233603;28;6463;-65
2023/10/16 08:51:08;;;;;;;;;;;;;;;14.74;46.72;96992.06;4233710;28;5646;-67
2023/10/16 08:53:30;;;;;;;;;;;;;;;14.75;46.92;96998.22;4229412;27;5748;-66
2023/10/16 08:55:36;;;;;;;;;;;;;;;14.76;46.91;96997.19;4222972;28;5679;-65
2023/10/16 08:57:39;;;;;;;;;;;;;;;14.74;46.77;96996.59;4224315;28;5730;-66
2023/10/16 08:59:45;;;;;;;;;;;;;;;14.75;46.71;96993.69;4225998;28;5772;-67
2023/10/16 09:01:48;;;;;;;;;;;;;;;14.77;46.93;96990.81;4231415;28;5732;-66
2023/10/16 09:03:54;;;;;;;;;;;;;;;14.79;46.72;96994.06;4224651;28;5654;-66
2023/10/16 09:06:01;;;;;;;;;;;;;;;14.81;46.84;96986.69;4225372;28;5751;-66
2023/10/16 09:08:07;;;;;;;;;;;;;;;14.80;46.82;96983.22;4228108;28;5646;-65
2023/10/16 09:10:11;;;;;;;;;;;;;;;14.82;46.86;96983.00;4231962;28;5698;-66
2023/10/16 09:12:14;;;;;;;;;;;;;;;14.85;46.80;96986.06;4231030;27;5846;-65
2023/10/16 09:14:26;;;;;;;;;;;;;;;14.87;46.90;96985.84;4228164;28;5784;-67
2023/10/16 09:16:34;;;;;;;;;;;;;;;14.89;46.80;96988.28;4228255;28;5674;-67
2023/10/16 09:18:38;;;;;;;;;;;;;;;14.90;46.73;96990.72;4190075;28;7733;-68
2023/10/16 09:20:42;;;;;;;;;;;;;;;14.91;46.73;96992.34;4193537;28;6417;-66
2023/10/16 09:22:47;;;;;;;;;;;;;;;14.89;46.48;96989.09;4190006;28;5681;-66
2023/10/16 09:24:52;;;;;;;;;;;;;;;14.91;46.55;96997.69;4187687;28;5730;-66
2023/10/16 09:26:57;;;;;;;;;;;;;;;14.94;46.75;96996.44;4192730;28;5935;-65
2023/10/16 09:29:04;;;;;;;;;;;;;;;14.94;46.70;96991.91;4197442;28;5796;-65
2023/10/16 09:31:08;;;;;;;;;;;;;;;14.96;46.62;96995.19;4193852;28;6433;-65
2023/10/16 09:33:16;;;;;;;;;;;;;;;14.97;46.40;96991.50;4195067;28;5776;-66
2023/10/16 09:35:20;;;;;;;;;;;;;;;14.98;46.28;96989.66;4198314;28;5685;-67
2023/10/16 09:37:35;;;;;;;;;;;;;;;14.98;46.45;96989.66;4197997;28;5698;-66
2023/10/16 09:39:40;;;;;;;;;;;;;;;14.99;46.55;96986.78;4192171;28;5814;-65
2023/10/16 09:41:49;;;;;;;;;;;;;;;14.99;46.47;96984.13;4188924;28;6506;-65
2023/10/16 09:44:06;;;;;;;;;;;;;;;15.00;46.23;96984.94;4183782;28;5686;-66
2023/10/16 09:46:48;;;;;;;;;;;;;;;15.00;46.40;96984.94;4189590;28;5888;-67
2023/10/16 09:48:51;;;;;;;;;;;;;;;15.00;46.24;96984.94;4182152;28;6314;-68
2023/10/16 09:50:56;;;;;;;;;;;;;;;14.98;46.39;96987.81;4184407;28;5965;-65
2023/10/16 09:53:01;;;;;;;;;;;;;;;14.99;46.39;96986.78;4193635;28;5829;-66
2023/10/16 09:55:06;;;;;;;;;;;;;;;15.02;46.34;96985.53;4196874;28;5756;-66
2023/10/16 09:57:18;;;;;;;;;;;;;;;15.05;46.13;96988.56;4193678;28;5810;-68
2023/10/16 09:59:31;;;;;;;;;;;;;;;15.08;46.26;96982.00;4199176;28;5693;-66
2023/10/16 10:01:33;;;;;;;;;;;;;;;15.14;46.45;96983.78;4193400;28;5800;-65
2023/10/16 10:03:38;;;;;;;;;;;;;;;15.16;46.43;96979.06;4198724;28;5841;-66
2023/10/16 10:05:55;;;;;;;;;;;;;;;15.23;46.41;96981.69;4201305;28;5737;-65
2023/10/16 10:08:00;;;;;;;;;;;;;;;15.27;46.34;96985.53;4197908;28;5718;-65
2023/10/16 10:12:42;;;;;;;;;;;;;;;15.32;46.25;96983.84;4190786;28;5794;-65
2023/10/16 10:14:49;;;;;;;;;;;;;;;15.37;46.26;96983.19;4193700;28;5772;-66
2023/10/16 10:16:56;;;;;;;;;;;;;;;15.40;46.03;96982.75;4190165;28;5817;-67
2023/10/16 10:19:01;;;;;;;;;;;;;;;15.44;46.23;96987.44;4232627;28;5658;-65
2023/10/16 10:21:11;;;;;;;;;;;;;;;15.50;46.15;96980.41;4233274;28;5645;-66
2023/10/16 10:23:15;;;;;;;;;;;;;;;15.54;46.17;96984.28;4232100;28;5721;-66
2023/10/16 10:25:29;;;;;;;;;;;;;;;15.59;46.26;96984.41;4234747;28;5630;-66
2023/10/16 10:27:38;;;;;;;;;;;;;;;15.63;45.93;96985.66;4226313;27;5653;-66
2023/10/16 10:29:43;;;;;;;;;;;;;;;15.63;45.80;96980.31;4224462;28;5754;-65
2023/10/16 10:31:47;;;;;;;;;;;;;;;15.64;46.07;96973.97;4234527;28;6335;-65
2023/10/16 10:33:51;;;;;;;;;;;;;;;15.67;46.10;96976.16;4225358;28;5760;-66
2023/10/16 10:36:32;;;;;;;;;;;;;;;15.66;45.92;96971.88;4224934;28;5884;-65
2023/10/16 10:38:36;;;;;;;;;;;;;;;15.68;46.03;96971.66;4227150;28;5828;-65
2023/10/16 10:40:38;;;;;;;;;;;;;;;15.63;45.87;96958.19;4227472;28;5769;-65
2023/10/16 10:42:45;;;;;;;;;;;;;;;15.72;45.89;96970.97;4224745;28;6643;-65
2023/10/16 10:44:55;;;;;;;;;;;;;;;15.75;46.10;96967.09;4222251;28;5871;-66
2023/10/16 10:47:04;;;;;;;;;;;;;;;15.75;45.84;96960.94;4224743;28;5884;-66
2023/10/16 10:49:12;;;;;;;;;;;;;;;15.73;45.98;96966.47;4222468;28;5805;-65
2023/10/16 10:51:17;;;;;;;;;;;;;;;15.73;45.85;96963.78;4221287;28;6503;-66
2023/10/16 10:53:20;;;;;;;;;;;;;;;15.73;46.13;96961.94;4224088;28;5131;-65
2023/10/16 10:55:22;;;;;;;;;;;;;;;15.75;45.93;96955.59;4228321;28;6383;-65
2023/10/16 10:57:27;;;;;;;;;;;;;;;15.77;45.86;96956.19;4230378;28;6335;-67
2023/10/16 10:59:39;;;;;;;;;;;;;;;15.79;45.85;96951.44;4225663;27;5662;-66
2023/10/16 11:01:51;;;;;;;;;;;;;;;15.82;45.84;96959.00;4232018;28;5725;-65
2023/10/16 11:03:55;;;;;;;;;;;;;;;15.87;46.01;96946.66;4230653;28;6097;-65
2023/10/16 11:05:59;;;;;;;;;;;;;;;15.89;45.96;96947.22;4224551;28;5646;-65
2023/10/16 11:10:26;;;;;;;;;;;;;;;15.93;45.78;96947.59;4230153;28;5670;-65
2023/10/16 11:12:30;;;;;;;;;;;;;;;15.93;45.95;96947.59;4224487;28;5736;-66
2023/10/16 11:14:35;;;;;;;;;;;;;;;15.92;45.92;96937.97;4220378;28;5676;-65
2023/10/16 11:16:48;;;;;;;;;;;;;;;15.90;46.12;96935.53;4216488;28;5684;-66
2023/10/16 11:18:57;;;;;;;;;;;;;;;15.91;46.20;96933.69;4227594;28;5730;-65
2023/10/16 11:21:04;;;;;;;;;;;;;;;15.92;46.10;96935.31;4233862;28;5793;-66
2023/10/16 11:23:12;;;;;;;;;;;;;;;15.91;46.29;96923.81;4222845;28;5673;-66
2023/10/16 11:25:16;;;;;;;;;;;;;;;15.92;46.30;96921.97;4225213;28;5642;-66
2023/10/16 11:27:20;;;;;;;;;;;;;;;15.91;46.33;96917.69;4224344;27;5630;-66
2023/10/16 11:29:24;;;;;;;;;;;;;;;15.93;46.40;96912.94;4224982;27;5751;-65
2023/10/16 11:31:29;;;;;;;;;;;;;;;15.90;46.38;96908.06;4225929;28;5072;-66
2023/10/16 11:33:34;;;;;;;;;;;;;;;15.88;46.49;96908.28;4233690;28;5822;-65
2023/10/16 11:35:42;;;;;;;;;;;;;;;15.86;46.50;96899.69;4233929;28;5662;-68
2023/10/16 11:37:50;;;;;;;;;;;;;;;15.86;46.45;96893.56;4232061;28;5642;-64
2023/10/16 11:39:56;;;;;;;;;;;;;;;15.87;46.56;96887.19;4223735;28;5729;-65
2023/10/16 11:42:01;;;;;;;;;;;;;;;15.88;46.47;96894.13;4232200;28;6789;-65
2023/10/16 11:44:13;;;;;;;;;;;;;;;15.90;46.52;96886.72;4226786;28;5745;-65
2023/10/16 11:48:46;;;;;;;;;;;;;;;15.90;46.55;96882.22;4222489;28;5752;-65
2023/10/16 11:50:58;;;;;;;;;;;;;;;15.91;46.50;96872.34;4224594;28;5639;-65
2023/10/16 11:53:02;;;;;;;;;;;;;;;15.92;46.59;96873.97;4221344;28;5658;-64
2023/10/16 11:55:08;;;;;;;;;;;;;;;15.92;46.64;96872.13;4227333;28;5740;-65
2023/10/16 11:57:13;;;;;;;;;;;;;;;15.92;46.85;96869.47;4227847;28;5762;-65
2023/10/16 11:59:19;;;;;;;;;;;;;;;15.91;46.75;96867.84;4228688;28;5733;-65
2023/10/16 12:01:24;;;;;;;;;;;;;;;15.93;46.85;96868.41;4224909;28;5658;-65
2023/10/16 12:03:49;;;;;;;;;;;;;;;15.96;46.80;96859.16;4228273;28;5853;-65
2023/10/16 12:05:52;;;;;;;;;;;;;;;15.97;47.17;96866.13;4227135;28;5708;-66
2023/10/16 12:07:56;;;;;;;;;;;;;;;15.99;47.03;96856.06;4224895;28;6165;-65
2023/10/16 12:10:05;;;;;;;;;;;;;;;15.96;47.18;96854.63;4226341;28;7001;-66
2023/10/16 12:12:08;;;;;;;;;;;;;;;15.98;47.10;96854.44;4232014;28;5657;-67
2023/10/16 12:14:13;;;;;;;;;;;;;;;15.97;47.10;96842.97;4222953;28;5675;-66
2023/10/16 12:16:24;;;;;;;;;;;;;;;15.98;47.09;96844.59;4223073;28;5667;-66
2023/10/16 12:18:38;;;;;;;;;;;;;;;15.98;47.25;96835.75;4224834;28;5797;-66
2023/10/16 12:20:43;;;;;;;;;;;;;;;15.96;47.15;96829.81;4230616;28;5740;-66
2023/10/16 12:22:47;;;;;;;;;;;;;;;15.97;47.01;96831.47;4223587;28;5756;-65
2023/10/16 12:24:50;;;;;;;;;;;;;;;15.97;47.32;96823.47;4228138;28;5738;-68
2023/10/16 12:26:53;;;;;;;;;;;;;;;15.97;47.44;96831.47;4226177;28;5812;-65
2023/10/16 12:28:59;;;;;;;;;;;;;;;15.99;47.26;96824.88;4223731;28;5729;-65
2023/10/16 12:31:03;;;;;;;;;;;;;;;16.00;47.31;96831.81;4221191;28;5657;-66
2023/10/16 12:33:07;;;;;;;;;;;;;;;16.01;47.30;96821.97;4219393;27;5744;-65
2023/10/16 12:35:11;;;;;;;;;;;;;;;16.02;47.61;96823.59;4231008;27;5642;-65
2023/10/16 12:37:19;;;;;;;;;;;;;;;16.02;47.54;96826.25;4227077;27;5744;-66
2023/10/16 12:39:25;;;;;;;;;;;;;;;16.01;47.30;96824.63;4214073;28;7069;-65
2023/10/16 12:41:29;;;;;;;;;;;;;;;16.02;47.36;96818.25;4231670;28;5642;-66
2023/10/16 12:43:32;;;;;;;;;;;;;;;16.01;47.39;96813.97;4226160;28;5096;-67
2023/10/16 12:45:39;;;;;;;;;;;;;;;16.02;47.48;96824.41;4229644;28;5646;-66
2023/10/16 12:47:43;;;;;;;;;;;;;;;16.01;47.37;96822.78;4227527;28;5661;-66
2023/10/16 12:49:47;;;;;;;;;;;;;;;16.00;47.57;96812.34;4230485;28;5752;-67
2023/10/16 12:51:51;;;;;;;;;;;;;;;16.00;47.54;96812.34;4232039;28;5844;-66
2023/10/16 12:53:55;;;;;;;;;;;;;;;16.03;47.69;96819.88;4229832;28;5729;-66
2023/10/16 12:55:58;;;;;;;;;;;;;;;16.04;47.58;96816.19;4226689;28;5662;-66
2023/10/16 12:58:03;;;;;;;;;;;;;;;16.03;47.70;96809.22;4223729;28;5672;-66
2023/10/16 13:00:15;;;;;;;;;;;;;;;16.01;47.69;96806.78;4226585;28;5844;-65
2023/10/16 13:02:25;;;;;;;;;;;;;;;16.02;47.76;96807.59;4231693;28;5647;-67
2023/10/16 13:04:33;;;;;;;;;;;;;;;16.04;47.65;96810.84;4228583;28;5752;-67
2023/10/16 13:06:37;;;;;;;;;;;;;;;16.07;47.67;96806.91;4224161;28;5737;-66
2023/10/16 13:08:39;;;;;;;;;;;;;;;16.07;47.67;96810.38;4227786;28;6633;-68
2023/10/16 13:10:48;;;;;;;;;;;;;;;16.08;47.80;96808.53;4222369;28;5773;-67
2023/10/16 13:12:51;;;;;;;;;;;;;;;16.07;47.67;96802.38;4227429;28;5646;-66
2023/10/16 13:14:57;;;;;;;;;;;;;;;16.07;47.91;96794.38;4217933;28;5676;-66
2023/10/16 13:17:00;;;;;;;;;;;;;;;16.07;47.76;96805.06;4230290;28;6357;-66
2023/10/16 13:19:03;;;;;;;;;;;;;;;16.09;47.64;96795.00;4231816;28;5761;-66
2023/10/16 13:21:07;;;;;;;;;;;;;;;16.09;47.93;96792.34;4231530;28;5796;-65
2023/10/16 13:23:12;;;;;;;;;;;;;;;16.10;47.78;96796.63;4224088;27;5744;-66
2023/10/16 13:25:16;;;;;;;;;;;;;;;16.12;47.83;96794.53;4222885;28;6423;-67
2023/10/16 13:27:21;;;;;;;;;;;;;;;16.14;47.86;96799.63;4221352;28;5762;-65
2023/10/16 13:29:25;;;;;;;;;;;;;;;16.15;47.84;96795.94;4229396;28;5675;-66
2023/10/16 13:31:29;;;;;;;;;;;;;;;16.15;48.01;96787.91;4229537;28;5756;-66
2023/10/16 13:33:33;;;;;;;;;;;;;;;16.13;47.87;96788.16;4235536;27;5737;-66
2023/10/16 13:35:38;;;;;;;;;;;;;;;16.11;47.92;96787.56;4226460;28;5828;-65
2023/10/16 13:37:43;;;;;;;;;;;;;;;16.10;47.86;96785.94;4233983;27;5747;-65
2023/10/16 13:39:46;;;;;;;;;;;;;;;16.14;47.82;96781.78;4226148;28;5812;-66
2023/10/16 13:41:51;;;;;;;;;;;;;;;16.16;48.02;96790.34;4223764;28;5799;-66
2023/10/16 13:43:56;;;;;;;;;;;;;;;16.18;48.23;96780.28;4230637;28;5666;-65
2023/10/16 13:46:02;;;;;;;;;;;;;;;16.19;48.06;96781.88;4230786;27;5729;-65
2023/10/16 13:48:09;;;;;;;;;;;;;;;16.16;47.95;96782.34;4223149;28;5681;-64
2023/10/16 13:50:13;;;;;;;;;;;;;;;16.18;48.08;96785.59;4228890;28;5099;-64
2023/10/16 13:52:18;;;;;;;;;;;;;;;16.19;48.15;96775.75;4232165;27;7688;-65
2023/10/16 13:54:21;;;;;;;;;;;;;;;16.21;48.08;96774.50;4233512;27;5651;-65
2023/10/16 13:56:24;;;;;;;;;;;;;;;16.21;48.13;96771.84;4232153;28;5675;-64
2023/10/16 13:58:27;;;;;;;;;;;;;;;16.21;48.22;96771.84;4232166;27;5639;-64
2023/10/16 14:00:35;;;;;;;;;;;;;;;16.23;48.10;96780.41;4234865;28;5108;-64
2023/10/16 14:02:37;;;;;;;;;;;;;;;16.25;48.12;96764.19;4218460;28;6498;-64
2023/10/16 14:04:45;;;;;;;;;;;;;;;16.26;48.26;96765.78;4234303;28;5769;-64
2023/10/16 14:06:51;;;;;;;;;;;;;;;16.25;48.18;96759.66;4228172;28;5642;-65
2023/10/16 14:08:58;;;;;;;;;;;;;;;16.26;48.07;96761.28;4226287;28;9579;-64
2023/10/16 14:11:01;;;;;;;;;;;;;;;16.28;48.19;96753.03;4233528;27;5760;-64
2023/10/16 14:13:11;;;;;;;;;;;;;;;16.26;48.07;96753.28;4234530;27;5646;-64
2023/10/16 14:15:19;;;;;;;;;;;;;;;16.27;48.29;96760.22;4226353;27;5797;-64
2023/10/16 14:17:24;;;;;;;;;;;;;;;16.27;48.03;96749.56;4225347;27;5945;-64
2023/10/16 14:19:28;;;;;;;;;;;;;;;16.30;48.09;96748.28;4238882;27;5986;-64
2023/10/16 14:21:31;;;;;;;;;;;;;;;16.29;48.24;96747.47;4228046;27;5653;-64
2023/10/16 14:23:34;;;;;;;;;;;;;;;16.30;47.89;96745.63;4225143;27;5639;-64
2023/10/16 14:25:41;;;;;;;;;;;;;;;16.31;48.15;96744.59;4228149;27;5665;-64
2023/10/16 14:27:43;;;;;;;;;;;;;;;16.31;48.16;96741.94;4225910;28;5729;-64
2023/10/16 14:29:48;;;;;;;;;;;;;;;16.32;48.12;96745.41;4232459;27;5753;-64
2023/10/16 14:31:55;;;;;;;;;;;;;;;16.32;48.19;96742.75;4237177;27;5632;-63
2023/10/16 14:34:00;;;;;;;;;;;;;;;16.32;48.24;96746.22;4235333;27;5793;-65
2023/10/16 14:36:05;;;;;;;;;;;;;;;16.32;48.28;96743.56;4230717;27;5794;-65
2023/10/16 14:38:07;;;;;;;;;;;;;;;16.33;48.30;96745.19;4226575;28;5775;-65
2023/10/16 14:40:15;;;;;;;;;;;;;;;16.34;48.18;96746.78;4223458;28;5749;-66
2023/10/16 14:42:18;;;;;;;;;;;;;;;16.34;48.12;96746.78;4232225;28;5718;-65
2023/10/16 14:44:22;;;;;;;;;;;;;;;16.34;48.22;96748.66;4226874;27;5798;-65
2023/10/16 14:46:27;;;;;;;;;;;;;;;16.34;48.18;96740.66;4229250;28;5741;-66
2023/10/16 14:48:30;;;;;;;;;;;;;;;16.34;48.12;96740.66;4226588;28;5667;-64
2023/10/16 14:50:36;;;;;;;;;;;;;;;16.32;48.37;96734.75;4236334;27;5647;-64
2023/10/16 14:52:39;;;;;;;;;;;;;;;16.31;48.22;96731.25;4224158;27;5676;-64
2023/10/16 14:54:43;;;;;;;;;;;;;;;16.31;48.21;96733.94;4224922;27;5845;-65
2023/10/16 14:56:46;;;;;;;;;;;;;;;16.30;48.23;96741.09;4233104;27;6515;-64
2023/10/16 14:58:49;;;;;;;;;;;;;;;16.30;48.28;96734.94;4227822;27;5648;-64
2023/10/16 15:01:15;;;;;;;;;;;;;;;16.30;48.44;96735.75;4230714;27;5765;-64
2023/10/16 15:03:20;;;;;;;;;;;;;;;16.31;48.41;96739.25;4229806;28;5123;-65
2023/10/16 15:05:24;;;;;;;;;;;;;;;16.30;48.41;96730.41;4227938;27;5729;-64
2023/10/16 15:07:29;;;;;;;;;;;;;;;16.30;48.34;96735.75;4226951;27;5644;-64
2023/10/16 15:09:33;;;;;;;;;;;;;;;16.30;48.34;96738.41;4222381;27;6570;-64
2023/10/16 15:11:36;;;;;;;;;;;;;;;16.32;48.42;96737.41;4238448;27;5750;-64
2023/10/16 15:13:42;;;;;;;;;;;;;;;16.32;48.32;96734.75;4232233;27;5847;-64
2023/10/16 15:15:46;;;;;;;;;;;;;;;16.30;48.41;96741.09;4224044;28;5646;-64
2023/10/16 15:17:50;;;;;;;;;;;;;;;16.32;48.32;96740.06;4224571;27;6405;-64
2023/10/16 15:19:54;;;;;;;;;;;;;;;16.31;48.48;96733.94;4235380;27;5601;-64
2023/10/16 15:21:58;;;;;;;;;;;;;;;16.30;48.39;96727.75;4236946;27;5757;-64
2023/10/16 15:24:04;;;;;;;;;;;;;;;16.31;48.30;96733.94;4235163;27;5729;-62
2023/10/16 15:26:07;;;;;;;;;;;;;;;16.29;48.42;96734.13;4233987;28;5835;-62
2023/10/16 15:28:11;;;;;;;;;;;;;;;16.29;48.58;96731.47;4229938;27;5761;-62
2023/10/16 15:30:27;;;;;;;;;;;;;;;16.29;48.66;96738.66;4224343;28;5650;-62
2023/10/16 15:32:30;;;;;;;;;;;;;;;16.28;48.69;96737.84;4226225;28;5684;-62
2023/10/16 15:34:33;;;;;;;;;;;;;;;16.28;48.67;96737.84;4233405;28;6111;-62
2023/10/16 15:36:36;;;;;;;;;;;;;;;16.29;48.58;96738.66;4225157;28;5741;-61
2023/10/16 15:38:41;;;;;;;;;;;;;;;16.28;48.50;96740.50;4217314;28;5681;-61
2023/10/16 15:40:46;;;;;;;;;;;;;;;16.28;48.74;96742.38;4226712;28;5747;-61
2023/10/16 15:42:52;;;;;;;;;;;;;;;16.27;48.68;96744.22;4233712;27;5646;-60
2023/10/16 15:44:55;;;;;;;;;;;;;;;16.27;48.66;96738.88;4227593;27;5833;-61
2023/10/16 15:47:00;;;;;;;;;;;;;;;16.25;48.80;96743.66;4233598;27;5634;-62
2023/10/16 15:49:05;;;;;;;;;;;;;;;16.25;48.72;96743.66;4224966;28;5838;-65
2023/10/16 15:51:09;;;;;;;;;;;;;;;16.27;48.74;96746.91;4228110;28;5744;-61
2023/10/16 15:53:12;;;;;;;;;;;;;;;16.27;48.73;96746.09;4228599;28;5759;-64
2023/10/16 15:55:17;;;;;;;;;;;;;;;16.28;48.85;96745.84;4232699;28;5846;-67
2023/10/16 15:57:22;;;;;;;;;;;;;;;16.29;48.83;96742.13;4231130;27;5748;-66
2023/10/16 15:59:26;;;;;;;;;;;;;;;16.29;48.88;96742.13;4243274;27;5810;-66
2023/10/16 16:01:29;;;;;;;;;;;;;;;16.32;48.98;96745.41;4234663;27;5708;-65
2023/10/16 16:03:33;;;;;;;;;;;;;;;16.30;48.85;96746.44;4237549;27;5653;-66
2023/10/16 16:05:37;;;;;;;;;;;;;;;16.31;48.80;96752.59;4229579;27;5783;-65
2023/10/16 16:07:43;;;;;;;;;;;;;;;16.29;48.77;96750.13;4225203;28;5702;-64
2023/10/16 16:09:47;;;;;;;;;;;;;;;16.32;48.78;96758.75;4231387;27;5874;-65
2023/10/16 16:11:50;;;;;;;;;;;;;;;16.32;48.82;96758.75;4232864;27;5866;-64
2023/10/16 16:13:55;;;;;;;;;;;;;;;16.29;48.94;96749.31;4238524;27;5715;-64
2023/10/16 16:16:00;;;;;;;;;;;;;;;16.29;48.91;96755.47;4232350;28;5741;-64
2023/10/16 16:18:05;;;;;;;;;;;;;;;16.29;48.78;96755.47;4227713;27;6501;-66
2023/10/16 16:20:15;;;;;;;;;;;;;;;16.28;48.77;96755.72;4235084;27;6326;-64
2023/10/16 16:22:18;;;;;;;;;;;;;;;16.28;48.73;96753.03;4235325;27;6331;-66
2023/10/16 16:24:21;;;;;;;;;;;;;;;16.26;48.82;96755.94;4233888;27;5759;-66
2023/10/16 16:26:25;;;;;;;;;;;;;;;16.25;48.76;96759.66;4232636;27;5726;-66
2023/10/16 16:28:28;;;;;;;;;;;;;;;16.27;48.74;96762.91;4224909;28;5751;-66
2023/10/16 16:30:32;;;;;;;;;;;;;;;16.27;48.90;96757.56;4231621;28;5801;-66
2023/10/16 16:32:36;;;;;;;;;;;;;;;16.27;48.83;96762.09;4227231;28;5804;-66
2023/10/16 16:34:40;;;;;;;;;;;;;;;16.28;48.92;96763.72;4228482;28;5814;-66
2023/10/16 16:36:43;;;;;;;;;;;;;;;16.28;49.01;96774.38;4231831;28;5650;-66
2023/10/16 16:38:46;;;;;;;;;;;;;;;16.26;48.94;96777.28;4218749;28;5757;-66
2023/10/16 16:40:48;;;;;;;;;;;;;;;16.26;48.97;96779.13;4218208;28;5728;-66
2023/10/16 16:42:52;;;;;;;;;;;;;;;16.24;49.11;96773.22;4224451;28;5668;-67
2023/10/16 16:44:55;;;;;;;;;;;;;;;16.24;48.97;96773.22;4231022;28;5753;-66
2023/10/16 16:46:59;;;;;;;;;;;;;;;16.21;48.76;96785.16;4232390;28;5734;-65
2023/10/16 16:49:02;;;;;;;;;;;;;;;16.19;49.01;96781.88;4224372;28;5809;-66
2023/10/16 16:51:06;;;;;;;;;;;;;;;16.17;48.97;96794.66;4232338;27;5744;-66
2023/10/16 16:53:10;;;;;;;;;;;;;;;16.13;48.90;96788.16;4224244;28;5733;-65
2023/10/16 16:55:14;;;;;;;;;;;;;;;16.11;48.97;96790.25;4218907;28;5113;-67
2023/10/16 16:57:17;;;;;;;;;;;;;;;16.08;48.75;96782.69;4221824;28;5671;-66
2023/10/16 16:59:21;;;;;;;;;;;;;;;16.08;48.93;96779.19;4225174;28;5742;-66
2023/10/16 17:01:24;;;;;;;;;;;;;;;16.08;48.85;96781.88;4230972;28;5713;-65
2023/10/16 17:03:28;;;;;;;;;;;;;;;16.08;48.93;96782.69;4225213;28;5727;-66
2023/10/16 17:05:34;;;;;;;;;;;;;;;16.06;48.80;96790.09;4230425;28;6467;-65
2023/10/16 17:07:38;;;;;;;;;;;;;;;16.03;48.90;96785.22;4225807;28;5864;-66
2023/10/16 17:09:41;;;;;;;;;;;;;;;16.04;48.81;96792.19;4215807;28;5809;-66
2023/10/16 17:11:44;;;;;;;;;;;;;;;16.02;48.79;96788.94;4218345;28;5672;-66
2023/10/16 17:13:48;;;;;;;;;;;;;;;15.96;48.63;96793.31;4224247;28;5657;-66
2023/10/16 17:15:51;;;;;;;;;;;;;;;15.92;48.91;96791.34;4224604;28;5866;-65
2023/10/16 17:17:56;;;;;;;;;;;;;;;15.88;48.76;96790.97;4229506;28;5646;-66
2023/10/16 17:20:01;;;;;;;;;;;;;;;15.88;48.68;96795.50;4227588;28;5642;-68
2023/10/16 17:22:04;;;;;;;;;;;;;;;15.88;48.93;96800.84;4220384;28;6008;-65
2023/10/16 17:24:10;;;;;;;;;;;;;;;15.88;48.95;96796.31;4222491;28;7667;-66